windsock image

Welcome to Bigfield Strip.

anemometer image
     

 Help for dials.  
 
Local Met:

Wind:   
10 Min average:  
94 ° / 5.0 kts (5.2)
91° / 4.6

Temperature:  
10.1°C C
Dew Point:  
8.9°C C
QNH:  
Trend:  
1004.0 mb mb
+0.6mb/hr
BigField Strip. This image updates approximately every minute, it can have a two minute delay.  
 

Humidity:  
92 %
Sunrise:   07:44z
Sunset:   15:59z
Updated:  
  UTC
 
   More met info, trends, radar, history etc. available here   

LUTON Metar   EGGW 281720Z 07007KT 9000 NSC 09/08 Q1004
 
  TAF   2014/11/28 18:15 TAF EGGW 281701Z 2818/2918 09009KT 9999 FEW010 BECMG 2818/2821 7000 PROB40 2819/2910 4000 HZ TEMPO 2910/2918 9999
 
BENSON Metar   EGUB 281650Z AUTO /////KT 9000 // SCT013/// 10/08 Q1003
 
  TAF   2014/11/28 15:33 TAF TAF EGUB 281620Z 2815/2818 CNL
 
Big Field view 1 icon   Big Field view 2 icon   Big Field view 3 icon   Chart AL3a in PDF icon   Chart AL3a in Word icon

WARNING:
This information is provided by the Airstrip unofficial weather station, DO NOT depend on the data provided here for any purpose.
This page is updated for latest Metars & TAF's every 5 minutes. Refresh the browser to check for the lastest.
Page designed for a minimum browser size of 1024x768.
© Copyright 2014 BigField Strip. This page auto generated 17:41 UTC - 28/11/2014   Contact Us
Valid HTML 4.01 Transitional     Windows uptime: 4 Days 15 Hours 9 Minutes 29 Seconds    WD started: 02:37 24/11/14    Free memory: 1513MB     Valid CSS!